Time;durP1;ratioP1;P1;durP2;ratioP2;P2;SDS_P1;SDS_P2;PMS_P1;PMS_P2;Temp;Humidity;BMP_temperature;BMP_pressure;BME280_temperature;BME280_humidity;BME280_pressure;Samples;Min_cycle;Max_cycle;Signal;HPM_P1;HPM_P2
2023/11/14 04:06:21;;;;;;;0.30;0.30;;;10.70;99.90;;;;;;5371403;23;20492;-62
2023/11/14 04:08:47;;;;;;;0.30;0.30;;;10.70;99.90;;;;;;4994961;28;20475;-62
2023/11/14 04:11:13;;;;;;;0.30;0.20;;;10.70;99.90;;;;;;4995061;28;20179;-63
2023/11/14 04:13:39;;;;;;;0.30;0.30;;;10.60;99.90;;;;;;4994565;28;20641;-62
2023/11/14 04:16:05;;;;;;;0.30;0.30;;;10.60;99.90;;;;;;4994586;28;20196;-62
2023/11/14 04:18:31;;;;;;;0.38;0.38;;;10.60;99.90;;;;;;4994845;28;20911;-63
2023/11/14 04:20:58;;;;;;;0.77;0.77;;;10.60;99.90;;;;;;4994946;28;20256;-62
2023/11/14 04:23:24;;;;;;;0.30;0.30;;;10.60;99.90;;;;;;4994863;28;20208;-62
2023/11/14 04:25:49;;;;;;;0.33;0.33;;;10.60;99.90;;;;;;4994356;28;20276;-63
2023/11/14 04:28:15;;;;;;;0.30;0.30;;;10.60;99.90;;;;;;4994687;28;20177;-63
2023/11/14 04:30:40;;;;;;;0.30;0.30;;;10.60;99.90;;;;;;4994535;28;20664;-62
2023/11/14 04:33:06;;;;;;;0.30;0.30;;;10.60;99.90;;;;;;4994571;28;20223;-62
2023/11/14 04:35:32;;;;;;;0.30;0.30;;;10.60;99.90;;;;;;4993262;28;20244;-62
2023/11/14 04:37:57;;;;;;;0.30;0.20;;;10.60;99.90;;;;;;4994371;28;20650;-61
2023/11/14 04:40:23;;;;;;;0.30;0.30;;;10.60;99.90;;;;;;4994539;28;20176;-62
2023/11/14 04:42:49;;;;;;;0.30;0.30;;;10.60;99.90;;;;;;4994849;28;20688;-64
2023/11/14 04:45:15;;;;;;;0.30;0.30;;;10.60;99.90;;;;;;4994147;28;20204;-62
2023/11/14 04:47:40;;;;;;;0.30;0.30;;;10.60;99.90;;;;;;4994542;28;20184;-63
2023/11/14 04:50:07;;;;;;;0.30;0.30;;;10.50;99.90;;;;;;4994302;28;20871;-63
2023/11/14 04:52:33;;;;;;;0.30;0.30;;;10.50;99.90;;;;;;4994367;28;20223;-63
2023/11/14 04:54:59;;;;;;;0.30;0.20;;;10.50;99.90;;;;;;4993875;28;20192;-62
2023/11/14 04:57:25;;;;;;;0.30;0.30;;;10.50;99.90;;;;;;4994362;28;20410;-63
2023/11/14 04:59:51;;;;;;;0.30;0.30;;;10.60;99.90;;;;;;4994338;28;20310;-63
2023/11/14 05:02:17;;;;;;;0.30;0.30;;;10.50;99.90;;;;;;4994314;28;20254;-63
2023/11/14 05:04:43;;;;;;;0.30;0.20;;;10.50;99.90;;;;;;4993685;28;20692;-63
2023/11/14 05:07:10;;;;;;;0.30;0.30;;;10.50;99.90;;;;;;4993935;28;20274;-64
2023/11/14 05:09:35;;;;;;;0.30;0.30;;;10.50;99.90;;;;;;4994090;28;20514;-63
2023/11/14 05:12:01;;;;;;;0.33;0.33;;;10.50;99.90;;;;;;4994027;28;20420;-62
2023/11/14 05:14:27;;;;;;;0.30;0.30;;;10.40;99.90;;;;;;4993617;28;20187;-64
2023/11/14 05:16:56;;;;;;;0.30;0.30;;;10.50;99.90;;;;;;4993922;28;20196;-64
2023/11/14 05:19:24;;;;;;;0.30;0.30;;;10.50;99.90;;;;;;4976627;28;20262;-64
2023/11/14 05:21:50;;;;;;;0.30;0.30;;;10.50;99.90;;;;;;4994027;28;20394;-63
2023/11/14 05:24:16;;;;;;;0.37;0.37;;;10.50;99.90;;;;;;4993016;28;20180;-62
2023/11/14 05:26:42;;;;;;;0.30;0.30;;;10.50;99.90;;;;;;4993765;28;20789;-63
2023/11/14 05:29:08;;;;;;;0.30;0.30;;;10.50;99.90;;;;;;4993742;28;20200;-62
2023/11/14 05:31:34;;;;;;;0.30;0.30;;;10.50;99.90;;;;;;4993884;28;20445;-63
2023/11/14 05:34:00;;;;;;;0.30;0.30;;;10.50;99.90;;;;;;4993556;28;20243;-63
2023/11/14 05:36:26;;;;;;;13.73;1.30;;;10.50;99.90;;;;;;4993742;28;20197;-62
2023/11/14 05:38:51;;;;;;;0.30;0.30;;;10.50;99.90;;;;;;4993835;28;20218;-63
2023/11/14 05:41:17;;;;;;;0.30;0.30;;;10.50;99.90;;;;;;4993603;28;20181;-62
2023/11/14 05:43:44;;;;;;;0.40;0.40;;;10.50;99.90;;;;;;4993662;28;20664;-63
2023/11/14 05:46:10;;;;;;;0.30;0.30;;;10.50;99.90;;;;;;4993429;28;20201;-63
2023/11/14 05:48:35;;;;;;;0.35;0.35;;;10.60;99.90;;;;;;4993496;28;20424;-62
2023/11/14 05:51:03;;;;;;;0.40;0.40;;;10.60;99.90;;;;;;4976277;28;20171;-62
2023/11/14 05:53:29;;;;;;;0.32;0.32;;;10.60;99.90;;;;;;4993721;28;20660;-62
2023/11/14 05:55:56;;;;;;;0.40;0.40;;;10.70;99.90;;;;;;4993258;28;20204;-63
2023/11/14 05:58:22;;;;;;;0.30;0.30;;;10.60;99.90;;;;;;4993564;28;20196;-62
2023/11/14 06:00:48;;;;;;;0.30;0.20;;;10.60;99.90;;;;;;4993631;28;20717;-64
2023/11/14 06:03:15;;;;;;;0.30;0.30;;;10.60;99.90;;;;;;4993609;28;20184;-61
2023/11/14 06:05:41;;;;;;;0.30;0.30;;;10.50;99.90;;;;;;4992596;28;20418;-64
2023/11/14 06:08:07;;;;;;;0.40;0.40;;;10.60;99.90;;;;;;4993192;28;20180;-65
2023/11/14 06:10:33;;;;;;;0.30;0.30;;;10.50;99.90;;;;;;4993049;28;20551;-63
2023/11/14 06:12:58;;;;;;;0.30;0.30;;;10.50;99.90;;;;;;4975635;28;20579;-63
2023/11/14 06:15:24;;;;;;;0.40;0.40;;;10.40;99.90;;;;;;4992925;28;20197;-62
2023/11/14 06:17:50;;;;;;;0.30;0.30;;;10.40;99.90;;;;;;4993387;28;20498;-62
2023/11/14 06:20:17;;;;;;;0.30;0.30;;;10.40;99.90;;;;;;4993505;28;20175;-62
2023/11/14 06:22:42;;;;;;;0.40;0.40;;;10.40;99.90;;;;;;4993390;28;20176;-64
2023/11/14 06:25:08;;;;;;;0.50;0.50;;;10.40;99.90;;;;;;4992792;28;20200;-63
2023/11/14 06:27:34;;;;;;;0.30;0.30;;;10.40;99.90;;;;;;4992989;28;20530;-66
2023/11/14 06:30:01;;;;;;;0.40;0.40;;;10.40;99.90;;;;;;4993311;28;20200;-66
2023/11/14 06:32:27;;;;;;;0.30;0.30;;;10.40;99.90;;;;;;4993478;28;20172;-65
2023/11/14 06:34:52;;;;;;;0.30;0.30;;;10.40;99.90;;;;;;4992762;28;20164;-65
2023/11/14 06:37:19;;;;;;;0.30;0.30;;;10.40;99.90;;;;;;4996172;28;20168;-65
2023/11/14 06:39:45;;;;;;;0.30;0.30;;;10.40;99.90;;;;;;4996747;28;20254;-66
2023/11/14 06:42:11;;;;;;;0.30;0.20;;;10.40;99.90;;;;;;4996119;28;20165;-65
2023/11/14 06:44:36;;;;;;;0.30;0.30;;;10.40;99.90;;;;;;4996215;28;20503;-65
2023/11/14 06:47:03;;;;;;;0.30;0.30;;;10.40;99.90;;;;;;4996497;28;20183;-65
2023/11/14 06:49:29;;;;;;;0.30;0.20;;;10.40;99.90;;;;;;4996312;28;20238;-66
2023/11/14 06:51:54;;;;;;;0.30;0.30;;;10.40;99.90;;;;;;4996185;28;20180;-65
2023/11/14 06:54:20;;;;;;;0.30;0.30;;;10.40;99.90;;;;;;4995924;28;20900;-64
2023/11/14 06:56:45;;;;;;;0.30;0.30;;;10.40;99.90;;;;;;4978859;28;20196;-65
2023/11/14 06:59:11;;;;;;;0.30;0.30;;;10.40;99.90;;;;;;4996122;28;20180;-65
2023/11/14 07:01:37;;;;;;;0.30;0.30;;;10.50;99.90;;;;;;4996422;28;20537;-65
2023/11/14 07:04:03;;;;;;;0.30;0.30;;;10.50;99.90;;;;;;4995514;28;20202;-66
2023/11/14 07:06:29;;;;;;;0.30;0.30;;;10.50;99.90;;;;;;4995653;28;20283;-65
2023/11/14 07:08:56;;;;;;;0.52;0.52;;;10.50;99.90;;;;;;4995934;28;20200;-65
2023/11/14 07:11:22;;;;;;;0.30;0.30;;;10.60;99.90;;;;;;4996065;28;20181;-65
2023/11/14 07:13:48;;;;;;;0.30;0.30;;;10.60;99.90;;;;;;4995629;28;20412;-67
2023/11/14 07:16:14;;;;;;;0.40;0.40;;;10.70;99.90;;;;;;4995658;28;20252;-66
2023/11/14 07:18:40;;;;;;;0.67;0.67;;;10.70;99.90;;;;;;4978220;28;20169;-65
2023/11/14 07:21:06;;;;;;;0.77;0.60;;;10.80;99.90;;;;;;4995739;28;20165;-65
2023/11/14 07:23:31;;;;;;;0.30;0.30;;;10.90;99.90;;;;;;4995806;28;20487;-65
2023/11/14 07:25:57;;;;;;;0.30;0.30;;;10.90;99.90;;;;;;4995348;28;20196;-66
2023/11/14 07:28:23;;;;;;;0.30;0.30;;;11.00;99.90;;;;;;4995828;28;20664;-65
2023/11/14 07:30:49;;;;;;;0.30;0.30;;;11.10;99.90;;;;;;4995418;28;20206;-66
2023/11/14 07:33:15;;;;;;;0.50;0.50;;;11.10;99.90;;;;;;4995413;28;20526;-66
2023/11/14 07:35:41;;;;;;;0.30;0.30;;;11.30;99.90;;;;;;4995050;28;20406;-66
2023/11/14 07:38:06;;;;;;;0.30;0.20;;;11.40;99.90;;;;;;4995609;28;20784;-65
2023/11/14 07:40:33;;;;;;;0.30;0.30;;;11.50;99.90;;;;;;4995835;28;20181;-66
2023/11/14 07:43:02;;;;;;;0.40;0.40;;;11.70;99.90;;;;;;4995470;28;20180;-66
2023/11/14 07:45:29;;;;;;;0.30;0.30;;;11.90;99.90;;;;;;4994995;28;20467;-66
2023/11/14 07:47:54;;;;;;;0.57;0.50;;;12.00;99.90;;;;;;4994663;28;20777;-65
2023/11/14 07:50:20;;;;;;;0.30;0.30;;;12.00;99.90;;;;;;4995112;28;20472;-65
2023/11/14 07:52:46;;;;;;;0.33;0.33;;;12.10;99.90;;;;;;4995197;28;20185;-65
2023/11/14 07:55:11;;;;;;;0.40;0.40;;;12.00;99.90;;;;;;4977265;28;20229;-65
2023/11/14 07:57:38;;;;;;;0.30;0.30;;;12.10;99.90;;;;;;4994950;28;20167;-65
2023/11/14 08:00:07;;;;;;;0.30;0.30;;;12.10;99.90;;;;;;4994962;28;21039;-65
2023/11/14 08:02:33;;;;;;;0.50;0.50;;;12.10;99.90;;;;;;4994934;28;20413;-65
2023/11/14 08:04:59;;;;;;;0.30;0.30;;;12.10;99.90;;;;;;4994724;28;20437;-64
2023/11/14 08:07:24;;;;;;;0.30;0.30;;;12.10;99.90;;;;;;4995075;28;20199;-65
2023/11/14 08:09:50;;;;;;;0.30;0.30;;;12.20;99.90;;;;;;4994848;28;20208;-64
2023/11/14 08:12:15;;;;;;;0.30;0.30;;;12.20;99.90;;;;;;4995102;28;20174;-65
2023/11/14 08:14:43;;;;;;;0.30;0.30;;;12.20;99.90;;;;;;4994525;28;20200;-65
2023/11/14 08:17:08;;;;;;;0.30;0.30;;;12.20;99.90;;;;;;4977497;28;20417;-65
2023/11/14 08:19:34;;;;;;;0.30;0.30;;;12.20;99.90;;;;;;4994647;28;20656;-64
2023/11/14 08:22:04;;;;;;;0.30;0.30;;;12.20;99.90;;;;;;4994641;28;20182;-65
2023/11/14 08:24:30;;;;;;;0.40;0.40;;;12.30;99.90;;;;;;4994190;28;20178;-65
2023/11/14 08:26:56;;;;;;;0.30;0.30;;;12.30;99.90;;;;;;4994437;28;20437;-65
2023/11/14 08:29:23;;;;;;;0.30;0.30;;;12.40;99.90;;;;;;4994676;28;20460;-65
2023/11/14 08:31:49;;;;;;;0.30;0.30;;;12.40;99.90;;;;;;4994799;28;20937;-65
2023/11/14 08:34:15;;;;;;;0.30;0.30;;;12.50;99.90;;;;;;4994403;28;20414;-65
2023/11/14 08:36:41;;;;;;;0.30;0.20;;;12.50;99.90;;;;;;4976730;28;20198;-65
2023/11/14 08:39:09;;;;;;;0.30;0.30;;;12.60;99.90;;;;;;4994674;28;20547;-66
2023/11/14 08:41:35;;;;;;;0.30;0.30;;;12.60;99.90;;;;;;4994378;28;20178;-66
2023/11/14 08:44:01;;;;;;;0.30;0.20;;;12.60;99.90;;;;;;4993728;28;20392;-66
2023/11/14 08:46:27;;;;;;;0.30;0.30;;;12.50;99.90;;;;;;4994085;28;20989;-66
2023/11/14 08:48:53;;;;;;;0.40;0.40;;;12.50;99.90;;;;;;4994309;28;20231;-66
2023/11/14 08:51:20;;;;;;;0.30;0.27;;;12.60;99.90;;;;;;4994265;28;20418;-65
2023/11/14 08:53:46;;;;;;;0.30;0.30;;;12.60;99.90;;;;;;4993716;28;20418;-68
2023/11/14 08:56:11;;;;;;;0.30;0.27;;;12.60;99.90;;;;;;4976076;28;20472;-65
2023/11/14 08:58:37;;;;;;;0.30;0.30;;;12.70;99.90;;;;;;4993517;28;20178;-66
2023/11/14 09:01:04;;;;;;;0.40;0.40;;;12.70;99.90;;;;;;4993510;28;20203;-65
2023/11/14 09:03:30;;;;;;;0.30;0.30;;;12.70;99.90;;;;;;4993989;28;20166;-65
2023/11/14 09:05:55;;;;;;;0.40;0.40;;;12.70;99.90;;;;;;4993445;28;20446;-65
2023/11/14 09:08:21;;;;;;;0.30;0.30;;;12.70;99.90;;;;;;4993609;28;20429;-65
2023/11/14 09:10:47;;;;;;;0.37;0.37;;;12.70;99.90;;;;;;4994050;28;20280;-66
2023/11/14 09:13:12;;;;;;;0.30;0.30;;;12.70;99.90;;;;;;4976272;28;20182;-65
2023/11/14 09:15:42;;;;;;;0.30;0.20;;;12.80;99.90;;;;;;4975857;28;20345;-65
2023/11/14 09:18:08;;;;;;;2.77;1.43;;;12.80;99.90;;;;;;4993710;28;20179;-65
2023/11/14 09:20:34;;;;;;;0.40;0.40;;;12.80;99.90;;;;;;4993848;28;20414;-65
2023/11/14 09:23:00;;;;;;;0.40;0.40;;;12.80;99.90;;;;;;4993733;28;20382;-65
2023/11/14 09:25:27;;;;;;;0.30;0.20;;;12.70;99.90;;;;;;4993340;28;20438;-65
2023/11/14 09:27:53;;;;;;;0.30;0.30;;;12.70;99.90;;;;;;4993827;28;20415;-65
2023/11/14 09:30:18;;;;;;;0.30;0.30;;;12.70;99.90;;;;;;4992059;28;20493;-65
2023/11/14 09:32:44;;;;;;;0.30;0.20;;;12.70;99.90;;;;;;4989208;28;20426;-66
2023/11/14 09:35:10;;;;;;;0.30;0.20;;;12.60;99.90;;;;;;4981535;28;20198;-66
2023/11/14 09:37:36;;;;;;;0.30;0.30;;;12.60;99.90;;;;;;4984698;28;20228;-67
2023/11/14 09:40:04;;;;;;;0.40;0.40;;;12.60;99.90;;;;;;4964253;28;20223;-65
2023/11/14 09:42:30;;;;;;;0.30;0.30;;;12.60;99.90;;;;;;4983274;28;20427;-65
2023/11/14 09:44:56;;;;;;;0.37;0.37;;;12.60;99.90;;;;;;4998435;28;20812;-65
2023/11/14 09:47:22;;;;;;;0.30;0.30;;;12.60;99.90;;;;;;4983300;28;20273;-65
2023/11/14 09:49:49;;;;;;;0.30;0.30;;;12.60;99.90;;;;;;4982264;28;20549;-66
2023/11/14 09:52:15;;;;;;;0.30;0.30;;;12.60;99.90;;;;;;4990809;28;20177;-65
2023/11/14 09:54:41;;;;;;;0.30;0.30;;;12.60;99.90;;;;;;4983368;28;20439;-65
2023/11/14 09:57:08;;;;;;;0.30;0.30;;;12.70;99.90;;;;;;4981503;28;20764;-65
2023/11/14 09:59:35;;;;;;;0.30;0.30;;;12.70;99.90;;;;;;4981590;28;20430;-66
2023/11/14 10:02:01;;;;;;;0.30;0.23;;;12.60;99.90;;;;;;4981360;28;20429;-66
2023/11/14 10:04:26;;;;;;;0.30;0.30;;;12.60;99.90;;;;;;4990866;28;20951;-66
2023/11/14 10:06:52;;;;;;;0.30;0.30;;;12.60;99.90;;;;;;4993013;28;20472;-64
2023/11/14 10:09:21;;;;;;;0.30;0.30;;;12.60;99.90;;;;;;4993199;28;20658;-64
2023/11/14 10:11:48;;;;;;;0.30;0.30;;;12.60;99.90;;;;;;4994907;28;20774;-65
2023/11/14 10:14:14;;;;;;;0.30;0.30;;;12.70;99.90;;;;;;4988474;28;20437;-65
2023/11/14 10:16:40;;;;;;;0.30;0.30;;;12.60;99.90;;;;;;4986937;28;20788;-65
2023/11/14 10:19:14;;;;;;;0.30;0.30;;;12.70;99.90;;;;;;4985005;28;20422;-65
2023/11/14 10:21:40;;;;;;;0.30;0.30;;;12.70;99.90;;;;;;4988572;28;20434;-66
2023/11/14 10:24:14;;;;;;;0.30;0.30;;;12.60;99.90;;;;;;4986166;28;20653;-64
2023/11/14 10:26:53;;;;;;;0.30;0.30;;;12.60;99.90;;;;;;4980227;28;20470;-63
2023/11/14 10:29:22;;;;;;;0.30;0.30;;;12.60;99.90;;;;;;4993359;28;20465;-65
2023/11/14 10:31:49;;;;;;;0.30;0.30;;;12.60;99.90;;;;;;4985768;28;20397;-65
2023/11/14 10:34:30;;;;;;;0.40;0.40;;;12.50;99.90;;;;;;4984456;28;20422;-65
2023/11/14 10:36:58;;;;;;;0.30;0.20;;;12.50;99.90;;;;;;4987244;28;20445;-65
2023/11/14 10:39:25;;;;;;;0.47;0.47;;;12.50;99.90;;;;;;4988149;28;20396;-65
2023/11/14 10:41:52;;;;;;;0.30;0.20;;;12.60;99.90;;;;;;4985592;28;20404;-65
2023/11/14 10:44:19;;;;;;;0.30;0.20;;;12.60;99.90;;;;;;4985512;28;20795;-65
2023/11/14 10:46:58;;;;;;;0.30;0.20;;;12.60;99.90;;;;;;4970482;28;20457;-64
2023/11/14 10:49:24;;;;;;;0.30;0.30;;;12.60;99.90;;;;;;4984619;28;20855;-65
2023/11/14 10:51:50;;;;;;;0.30;0.30;;;12.60;99.90;;;;;;4984789;28;20435;-65
2023/11/14 10:54:17;;;;;;;0.30;0.30;;;12.70;99.90;;;;;;4984304;28;20194;-65
2023/11/14 10:56:44;;;;;;;0.30;0.20;;;12.70;99.90;;;;;;4987750;28;20507;-65
2023/11/14 10:59:13;;;;;;;0.30;0.30;;;12.80;99.90;;;;;;4984417;28;20481;-64
2023/11/14 11:01:40;;;;;;;0.30;0.30;;;12.80;99.90;;;;;;4984589;28;20431;-65
2023/11/14 11:04:08;;;;;;;0.30;0.30;;;12.80;99.90;;;;;;4987234;28;21240;-65
2023/11/14 11:06:34;;;;;;;0.30;0.30;;;12.80;99.90;;;;;;4987091;28;20440;-65
2023/11/14 11:09:05;;;;;;;0.30;0.20;;;12.80;99.90;;;;;;4986834;28;20443;-66
2023/11/14 11:11:33;;;;;;;0.30;0.30;;;12.90;99.90;;;;;;4995490;28;20410;-65
2023/11/14 11:14:03;;;;;;;0.30;0.20;;;12.90;99.90;;;;;;4994160;28;20736;-66
2023/11/14 11:16:43;;;;;;;0.30;0.30;;;13.00;99.90;;;;;;4990290;28;20516;-66
2023/11/14 11:19:21;;;;;;;0.30;0.30;;;13.00;99.90;;;;;;5005063;28;20419;-66
2023/11/14 11:22:04;;;;;;;0.30;0.30;;;13.10;99.90;;;;;;5008187;28;20917;-67
2023/11/14 11:24:30;;;;;;;0.30;0.30;;;13.00;99.90;;;;;;4997098;28;20504;-66
2023/11/14 11:27:25;;;;;;;0.30;0.30;;;13.00;99.90;;;;;;4992716;28;20450;-66
2023/11/14 11:30:04;;;;;;;0.30;0.30;;;13.00;99.90;;;;;;4997133;28;20468;-66
2023/11/14 11:32:33;;;;;;;0.30;0.30;;;13.10;99.90;;;;;;5008478;28;20418;-66
2023/11/14 11:35:31;;;;;;;0.30;0.30;;;13.20;99.90;;;;;;4995769;28;20453;-66
2023/11/14 11:38:13;;;;;;;0.30;0.30;;;13.20;99.90;;;;;;4942901;28;20485;-65
2023/11/14 11:41:10;;;;;;;0.30;0.30;;;13.30;99.90;;;;;;4985557;28;20411;-66
2023/11/14 11:43:38;;;;;;;0.30;0.30;;;13.30;99.90;;;;;;4971340;28;20437;-68
2023/11/14 11:46:33;;;;;;;0.30;0.30;;;13.20;99.90;;;;;;4986148;28;20442;-66
2023/11/14 11:49:14;;;;;;;0.40;0.40;;;13.20;99.90;;;;;;4985331;28;20805;-66
2023/11/14 11:51:46;;;;;;;0.30;0.30;;;13.30;99.90;;;;;;4985896;28;20421;-67
2023/11/14 11:54:27;;;;;;;0.30;0.30;;;13.30;99.90;;;;;;4985878;28;20422;-66
2023/11/14 11:57:11;;;;;;;0.30;0.30;;;13.30;99.90;;;;;;4986917;28;20446;-67
2023/11/14 11:59:39;;;;;;;0.30;0.30;;;13.30;99.90;;;;;;4976027;28;20382;-67
2023/11/14 12:02:11;;;;;;;0.40;0.40;;;13.30;99.90;;;;;;4988693;28;20433;-67
2023/11/14 12:04:37;;;;;;;0.30;0.20;;;13.30;99.90;;;;;;4994591;28;20421;-66
2023/11/14 12:07:04;;;;;;;0.37;0.37;;;13.30;99.90;;;;;;5006972;28;20453;-67
2023/11/14 12:09:31;;;;;;;0.30;0.30;;;13.40;99.90;;;;;;4985973;28;20426;-66
2023/11/14 12:12:00;;;;;;;0.33;0.33;;;13.40;99.90;;;;;;4984765;28;20389;-67
2023/11/14 12:14:29;;;;;;;0.30;0.20;;;13.50;99.90;;;;;;4980429;28;20411;-68
2023/11/14 12:17:06;;;;;;;0.30;0.30;;;13.50;99.90;;;;;;4979861;28;20447;-67
2023/11/14 12:19:34;;;;;;;0.30;0.30;;;13.50;99.90;;;;;;5010278;28;20463;-66
2023/11/14 12:22:05;;;;;;;0.30;0.30;;;13.60;99.90;;;;;;5009746;28;20490;-66
2023/11/14 12:24:31;;;;;;;0.30;0.30;;;13.60;99.90;;;;;;4994269;28;20438;-66
2023/11/14 12:26:56;;;;;;;0.30;0.30;;;13.60;99.90;;;;;;4986255;28;20438;-67
2023/11/14 12:29:22;;;;;;;0.30;0.30;;;13.60;99.90;;;;;;4992636;28;20618;-66
2023/11/14 12:31:51;;;;;;;0.30;0.20;;;13.70;99.90;;;;;;4982449;28;20596;-67
2023/11/14 12:34:28;;;;;;;0.30;0.20;;;13.70;99.90;;;;;;4976545;28;20514;-66
2023/11/14 12:37:08;;;;;;;0.30;0.20;;;13.70;99.90;;;;;;4975294;28;20898;-64
2023/11/14 12:39:33;;;;;;;0.30;0.30;;;13.70;99.90;;;;;;4957672;28;20834;-65
2023/11/14 12:41:59;;;;;;;0.30;0.20;;;13.70;99.90;;;;;;4979693;28;20410;-65
2023/11/14 12:44:25;;;;;;;0.30;0.20;;;13.70;99.90;;;;;;4993451;28;20222;-65
2023/11/14 12:46:54;;;;;;;0.30;0.20;;;13.70;99.90;;;;;;4993755;28;20203;-65
2023/11/14 12:49:22;;;;;;;0.30;0.30;;;13.70;99.90;;;;;;4976947;28;20537;-66
2023/11/14 12:51:51;;;;;;;0.30;0.30;;;13.70;99.90;;;;;;4957603;28;20425;-66
2023/11/14 12:54:20;;;;;;;0.30;0.20;;;13.60;99.90;;;;;;4993595;28;20410;-65
2023/11/14 12:56:48;;;;;;;0.30;0.20;;;13.70;99.90;;;;;;4977011;28;20438;-65
2023/11/14 12:59:14;;;;;;;0.30;0.30;;;13.70;99.90;;;;;;4963580;28;20935;-66
2023/11/14 13:01:41;;;;;;;0.30;0.20;;;13.60;99.90;;;;;;4981785;28;20486;-65
2023/11/14 13:04:10;;;;;;;0.30;0.30;;;13.50;99.90;;;;;;4977809;28;20878;-65
2023/11/14 13:06:38;;;;;;;0.30;0.30;;;13.60;99.90;;;;;;4977288;28;20432;-65
2023/11/14 13:09:06;;;;;;;0.30;0.30;;;13.60;99.90;;;;;;4993548;28;20586;-65
2023/11/14 13:11:33;;;;;;;0.30;0.20;;;13.50;99.90;;;;;;4993580;28;20437;-64
2023/11/14 13:13:59;;;;;;;0.30;0.30;;;13.40;99.90;;;;;;4993371;28;20432;-65
2023/11/14 13:16:25;;;;;;;0.30;0.27;;;13.50;99.90;;;;;;4992890;28;20433;-65
2023/11/14 13:18:50;;;;;;;0.30;0.30;;;13.50;99.90;;;;;;4993600;28;20290;-65
2023/11/14 13:21:17;;;;;;;0.30;0.30;;;13.50;99.90;;;;;;4993759;28;20403;-65
2023/11/14 13:23:43;;;;;;;0.30;0.30;;;13.50;99.90;;;;;;4993506;28;20988;-64
2023/11/14 13:26:10;;;;;;;0.30;0.20;;;13.40;99.90;;;;;;4993265;28;20410;-63
2023/11/14 13:28:37;;;;;;;0.30;0.30;;;13.40;99.90;;;;;;4992227;28;20407;-69
2023/11/14 13:31:06;;;;;;;0.33;0.33;;;13.40;99.90;;;;;;4978426;28;20544;-62
2023/11/14 13:33:33;;;;;;;0.30;0.30;;;13.40;99.90;;;;;;4993646;28;20905;-64
2023/11/14 13:35:58;;;;;;;0.30;0.30;;;13.40;99.90;;;;;;4974518;28;20442;-63
2023/11/14 13:38:27;;;;;;;0.30;0.30;;;13.40;99.90;;;;;;4993728;28;20407;-63
2023/11/14 13:40:56;;;;;;;0.30;0.30;;;13.30;99.90;;;;;;4993005;28;20644;-63
2023/11/14 13:43:22;;;;;;;0.30;0.20;;;13.30;99.90;;;;;;4993909;28;20426;-63
2023/11/14 13:45:52;;;;;;;0.40;0.40;;;13.30;99.90;;;;;;4993930;28;20457;-63
2023/11/14 13:48:18;;;;;;;0.30;0.30;;;13.30;99.90;;;;;;4997776;28;20841;-62
2023/11/14 13:50:45;;;;;;;0.30;0.30;;;13.20;99.90;;;;;;4981839;28;20464;-63
2023/11/14 13:53:12;;;;;;;0.30;0.30;;;13.20;99.90;;;;;;4975923;28;20426;-64
2023/11/14 13:55:38;;;;;;;0.30;0.30;;;13.10;99.90;;;;;;4958231;28;20434;-65
2023/11/14 13:58:05;;;;;;;0.30;0.30;;;13.10;99.90;;;;;;4975970;28;20418;-65
2023/11/14 14:00:31;;;;;;;0.30;0.30;;;13.10;99.90;;;;;;4975919;28;20498;-63
2023/11/14 14:02:57;;;;;;;0.30;0.30;;;13.10;99.90;;;;;;4983660;28;20529;-63
2023/11/14 14:05:22;;;;;;;0.30;0.30;;;13.00;99.90;;;;;;4976285;28;20934;-63
2023/11/14 14:07:48;;;;;;;0.30;0.30;;;13.00;99.90;;;;;;4977628;28;20682;-63
2023/11/14 14:10:14;;;;;;;0.30;0.20;;;13.00;99.90;;;;;;4977855;28;20204;-63
2023/11/14 14:12:45;;;;;;;0.30;0.20;;;13.00;99.90;;;;;;4992754;28;20920;-63
2023/11/14 14:15:11;;;;;;;0.30;0.30;;;13.00;99.90;;;;;;4996722;28;20500;-63
2023/11/14 14:17:47;;;;;;;0.30;0.30;;;12.90;99.90;;;;;;4997084;28;20432;-63
2023/11/14 14:20:14;;;;;;;0.30;0.30;;;12.90;99.90;;;;;;4993422;28;20187;-63
2023/11/14 14:22:45;;;;;;;0.30;0.30;;;12.90;99.90;;;;;;4996975;28;20483;-62
2023/11/14 14:25:15;;;;;;;0.30;0.27;;;12.90;99.90;;;;;;4979415;28;20433;-63
2023/11/14 14:27:41;;;;;;;0.30;0.30;;;12.90;99.90;;;;;;4996964;28;20476;-62
2023/11/14 14:30:08;;;;;;;0.30;0.30;;;12.90;99.90;;;;;;4977349;28;20457;-62
2023/11/14 14:32:36;;;;;;;0.30;0.30;;;12.90;99.90;;;;;;4977584;28;20457;-63
2023/11/14 14:35:03;;;;;;;0.30;0.30;;;12.90;99.90;;;;;;4976963;28;20434;-63
2023/11/14 14:37:28;;;;;;;0.30;0.30;;;12.90;99.90;;;;;;4977338;28;20454;-62
2023/11/14 14:39:56;;;;;;;0.30;0.20;;;12.80;99.90;;;;;;4990064;28;20479;-63
2023/11/14 14:42:22;;;;;;;0.30;0.30;;;12.80;99.90;;;;;;4996756;28;20183;-63
2023/11/14 14:44:47;;;;;;;0.30;0.30;;;12.80;99.90;;;;;;4996144;28;20471;-63
2023/11/14 14:47:15;;;;;;;0.30;0.20;;;12.80;99.90;;;;;;4992111;28;20466;-64
2023/11/14 14:49:43;;;;;;;0.30;0.30;;;12.80;99.90;;;;;;4976964;28;20199;-62
2023/11/14 14:52:09;;;;;;;0.30;0.30;;;12.80;99.90;;;;;;4977116;28;20514;-63
2023/11/14 14:54:38;;;;;;;0.30;0.20;;;12.70;99.90;;;;;;4976524;28;20909;-62
2023/11/14 14:57:07;;;;;;;0.30;0.30;;;12.70;99.90;;;;;;4977762;28;20426;-63
2023/11/14 14:59:33;;;;;;;0.30;0.20;;;12.70;99.90;;;;;;4987774;28;20466;-62
2023/11/14 15:01:59;;;;;;;0.40;0.40;;;12.70;99.90;;;;;;4984716;28;20999;-63
2023/11/14 15:04:25;;;;;;;0.30;0.30;;;12.60;99.90;;;;;;4986928;28;20428;-62
2023/11/14 15:06:54;;;;;;;0.30;0.27;;;12.60;99.90;;;;;;4982795;28;20479;-63
2023/11/14 15:09:25;;;;;;;0.30;0.30;;;12.60;99.90;;;;;;4984672;28;20814;-62
2023/11/14 15:11:55;;;;;;;0.30;0.20;;;12.60;99.90;;;;;;4984944;28;20734;-62
2023/11/14 15:14:26;;;;;;;0.30;0.30;;;12.60;99.90;;;;;;4988615;28;20392;-63
2023/11/14 15:16:52;;;;;;;0.30;0.20;;;12.50;99.90;;;;;;4983666;28;20448;-63
2023/11/14 15:19:18;;;;;;;0.30;0.20;;;12.50;99.90;;;;;;4976617;28;20944;-63
2023/11/14 15:21:43;;;;;;;0.30;0.30;;;12.50;99.90;;;;;;4984750;28;20475;-62
2023/11/14 15:24:09;;;;;;;0.30;0.30;;;12.50;99.90;;;;;;4983463;28;20447;-63
2023/11/14 15:26:35;;;;;;;0.30;0.30;;;12.50;99.90;;;;;;4984017;28;20205;-63
2023/11/14 15:29:03;;;;;;;0.30;0.30;;;12.40;99.90;;;;;;4986961;28;20608;-63
2023/11/14 15:31:31;;;;;;;0.30;0.30;;;12.30;99.90;;;;;;4987238;28;20542;-62
2023/11/14 15:33:57;;;;;;;0.30;0.30;;;12.30;99.90;;;;;;4983434;28;20787;-63
2023/11/14 15:36:26;;;;;;;0.30;0.30;;;12.30;99.90;;;;;;4984788;28;20431;-63
2023/11/14 15:38:53;;;;;;;0.30;0.30;;;12.20;99.90;;;;;;4983339;28;20175;-63
2023/11/14 15:41:20;;;;;;;0.30;0.30;;;12.30;99.90;;;;;;4985957;28;20419;-63
2023/11/14 15:43:45;;;;;;;0.30;0.30;;;12.20;99.90;;;;;;4979157;28;20413;-66
2023/11/14 15:46:11;;;;;;;0.30;0.30;;;12.20;99.90;;;;;;4986627;28;20450;-63
2023/11/14 15:48:37;;;;;;;0.30;0.30;;;12.20;99.90;;;;;;4987071;28;20262;-61
2023/11/14 15:51:03;;;;;;;0.30;0.30;;;12.10;99.90;;;;;;4981260;28;20555;-63
2023/11/14 15:53:29;;;;;;;0.30;0.20;;;12.10;99.90;;;;;;4992419;28;20180;-61
2023/11/14 15:55:55;;;;;;;0.30;0.30;;;12.10;99.90;;;;;;4991216;28;20448;-62
2023/11/14 15:58:20;;;;;;;0.30;0.30;;;12.00;99.90;;;;;;4992891;28;20770;-63
2023/11/14 16:00:46;;;;;;;0.30;0.30;;;12.00;99.90;;;;;;4984909;28;20184;-62
2023/11/14 16:03:12;;;;;;;0.30;0.30;;;12.00;99.90;;;;;;4986461;28;20538;-64
2023/11/14 16:05:38;;;;;;;0.30;0.30;;;11.90;99.90;;;;;;4985304;28;20449;-62
2023/11/14 16:08:04;;;;;;;0.30;0.30;;;11.90;99.90;;;;;;4982666;28;20229;-63
2023/11/14 16:10:30;;;;;;;0.30;0.30;;;11.90;99.90;;;;;;4965490;28;20571;-66
2023/11/14 16:12:56;;;;;;;0.30;0.30;;;11.80;99.90;;;;;;4985695;28;20413;-63
2023/11/14 16:15:21;;;;;;;0.30;0.30;;;11.80;99.90;;;;;;4986017;28;20205;-62
2023/11/14 16:17:47;;;;;;;0.30;0.30;;;11.80;99.90;;;;;;4983947;28;20174;-62
2023/11/14 16:20:12;;;;;;;0.30;0.30;;;11.80;99.90;;;;;;4982986;28;20213;-70
2023/11/14 16:22:38;;;;;;;0.30;0.20;;;11.80;99.90;;;;;;4983068;28;20550;-70
2023/11/14 16:25:05;;;;;;;0.30;0.30;;;11.80;99.90;;;;;;4985731;28;20201;-67
2023/11/14 16:27:31;;;;;;;0.30;0.20;;;11.70;99.90;;;;;;4985667;28;20177;-64
2023/11/14 16:29:56;;;;;;;0.30;0.30;;;11.70;99.90;;;;;;4982560;28;20453;-64
2023/11/14 16:32:22;;;;;;;0.30;0.30;;;11.60;99.90;;;;;;4982654;28;20433;-65
2023/11/14 16:34:49;;;;;;;0.30;0.30;;;11.60;99.90;;;;;;4983498;28;20261;-63
2023/11/14 16:37:16;;;;;;;0.30;0.30;;;11.60;99.90;;;;;;4985335;28;20462;-67
2023/11/14 16:39:42;;;;;;;0.30;0.30;;;11.60;99.90;;;;;;4984378;28;20832;-65
2023/11/14 16:42:08;;;;;;;0.30;0.30;;;11.50;99.90;;;;;;4988346;28;20424;-63
2023/11/14 16:44:34;;;;;;;0.30;0.30;;;11.50;99.90;;;;;;4985079;28;20185;-65
2023/11/14 16:47:05;;;;;;;0.40;0.40;;;11.50;99.90;;;;;;4994218;28;20440;-64
2023/11/14 16:49:32;;;;;;;0.30;0.23;;;11.50;99.90;;;;;;4993862;28;20456;-66
2023/11/14 16:51:57;;;;;;;0.40;0.40;;;11.50;99.90;;;;;;4994051;28;20412;-65
2023/11/14 16:54:23;;;;;;;0.30;0.30;;;11.50;99.90;;;;;;4986626;28;20762;-63